createdAt,value
2018-03-15T00:00:59.097Z,993.88
2018-03-15T00:01:59.100Z,993.91
2018-03-15T00:02:59.018Z,993.95
2018-03-15T00:03:58.998Z,993.86
2018-03-15T00:04:58.927Z,993.82
2018-03-15T00:05:58.892Z,993.84
2018-03-15T00:06:58.858Z,993.77
2018-03-15T00:07:58.842Z,993.87
2018-03-15T00:08:58.781Z,993.85
2018-03-15T00:09:58.732Z,993.82
2018-03-15T00:10:58.715Z,993.71
2018-03-15T00:11:58.676Z,993.75
2018-03-15T00:12:58.639Z,993.81
2018-03-15T00:13:58.596Z,993.72
2018-03-15T00:14:58.576Z,993.69
2018-03-15T00:15:58.504Z,993.78
2018-03-15T00:16:58.501Z,993.77
2018-03-15T00:17:58.428Z,993.70
2018-03-15T00:18:58.379Z,993.70
2018-03-15T00:19:58.346Z,993.69
2018-03-15T00:20:58.301Z,993.72
2018-03-15T00:21:58.250Z,993.72
2018-03-15T00:22:58.212Z,993.66
2018-03-15T00:23:58.178Z,993.58
2018-03-15T00:24:58.157Z,993.62
2018-03-15T00:25:58.111Z,993.67
2018-03-15T00:26:58.087Z,993.61
2018-03-15T00:27:58.047Z,993.65
2018-03-15T00:28:57.977Z,993.62
2018-03-15T00:29:57.989Z,993.66
2018-03-15T00:30:57.896Z,993.64
2018-03-15T00:31:57.870Z,993.65
2018-03-15T00:32:57.851Z,993.66
2018-03-15T00:33:57.838Z,993.65
2018-03-15T00:34:57.769Z,993.62
2018-03-15T00:35:57.703Z,993.78
2018-03-15T00:36:57.703Z,993.73
2018-03-15T00:37:57.642Z,993.68
2018-03-15T00:38:57.621Z,993.69
2018-03-15T00:39:57.566Z,993.67
2018-03-15T00:40:57.558Z,993.86
2018-03-15T00:41:57.461Z,993.68
2018-03-15T00:42:57.463Z,993.67
2018-03-15T00:43:57.438Z,993.59
2018-03-15T00:44:57.368Z,993.69
2018-03-15T00:45:57.298Z,993.60
2018-03-15T00:46:57.278Z,993.45
2018-03-15T00:47:57.220Z,993.67
2018-03-15T00:48:57.178Z,993.63
2018-03-15T00:49:57.142Z,993.52
2018-03-15T00:50:57.135Z,993.55
2018-03-15T00:51:57.069Z,993.63
2018-03-15T00:52:57.019Z,993.56
2018-03-15T00:53:57.015Z,993.52
2018-03-15T00:54:56.939Z,993.44
2018-03-15T00:55:56.896Z,993.50
2018-03-15T00:56:56.858Z,993.58
2018-03-15T00:57:56.814Z,993.45
2018-03-15T00:58:56.785Z,993.54
2018-03-15T00:59:56.759Z,993.54
2018-03-15T01:00:56.701Z,993.42
2018-03-15T01:01:56.665Z,993.48
2018-03-15T01:02:56.614Z,993.48
2018-03-15T01:03:56.597Z,993.48
2018-03-15T01:04:56.554Z,993.36
2018-03-15T01:05:56.492Z,993.37
2018-03-15T01:06:56.492Z,993.44
2018-03-15T01:07:56.435Z,993.36
2018-03-15T01:08:56.379Z,993.43
2018-03-15T01:09:56.391Z,993.35
2018-03-15T01:10:56.311Z,993.36
2018-03-15T01:11:56.269Z,993.26
2018-03-15T01:12:56.265Z,993.20
2018-03-15T01:13:56.214Z,993.31
2018-03-15T01:14:56.178Z,993.18
2018-03-15T01:15:56.091Z,993.21
2018-03-15T01:16:56.058Z,993.13
2018-03-15T01:17:56.019Z,993.09
2018-03-15T01:18:55.989Z,993.10
2018-03-15T01:19:55.938Z,993.03
2018-03-15T01:20:55.900Z,993.00
2018-03-15T01:21:55.863Z,992.97
2018-03-15T01:22:55.820Z,992.98
2018-03-15T01:23:55.795Z,992.89
2018-03-15T01:24:55.753Z,992.88
2018-03-15T01:25:55.723Z,992.81
2018-03-15T01:26:55.691Z,992.83
2018-03-15T01:27:55.674Z,992.72
2018-03-15T01:28:55.626Z,992.75
2018-03-15T01:29:55.572Z,992.72
2018-03-15T01:30:55.508Z,992.64
2018-03-15T01:31:55.477Z,992.67
2018-03-15T01:32:55.419Z,992.80
2018-03-15T01:33:55.383Z,992.77
2018-03-15T01:34:55.356Z,992.68
2018-03-15T01:35:55.310Z,992.67
2018-03-15T01:36:55.287Z,992.65
2018-03-15T01:37:55.237Z,992.71
2018-03-15T01:38:55.208Z,992.53
2018-03-15T01:39:55.179Z,992.51
2018-03-15T01:40:55.094Z,992.54
2018-03-15T01:41:55.060Z,992.39
2018-03-15T01:42:55.037Z,992.56
2018-03-15T01:43:54.977Z,992.62
2018-03-15T01:44:54.963Z,992.81
2018-03-15T01:45:54.899Z,992.63
2018-03-15T01:46:54.864Z,992.55
2018-03-15T01:47:54.862Z,992.58
2018-03-15T01:48:54.780Z,992.60
2018-03-15T01:49:54.752Z,992.60
2018-03-15T01:50:54.704Z,992.55
2018-03-15T01:51:54.660Z,992.44
2018-03-15T01:52:54.626Z,992.55
2018-03-15T01:53:54.587Z,992.44
2018-03-15T01:54:54.540Z,992.40
2018-03-15T01:55:54.495Z,992.49
2018-03-15T01:56:54.470Z,992.43
2018-03-15T01:57:54.460Z,992.30
2018-03-15T01:58:54.376Z,992.35
2018-03-15T01:59:54.351Z,992.47
2018-03-15T02:00:54.302Z,992.37
2018-03-15T02:01:54.265Z,992.39
2018-03-15T02:02:54.231Z,992.33
2018-03-15T02:03:54.198Z,992.45
2018-03-15T02:04:54.148Z,992.28
2018-03-15T02:05:54.101Z,992.33
2018-03-15T02:06:54.109Z,992.36
2018-03-15T02:07:54.032Z,992.43
2018-03-15T02:08:54.015Z,992.36
2018-03-15T02:09:53.947Z,992.37
2018-03-15T02:10:53.954Z,992.46
2018-03-15T02:11:53.921Z,992.39
2018-03-15T02:12:53.840Z,992.27
2018-03-15T02:13:53.785Z,992.34
2018-03-15T02:14:53.747Z,992.38
2018-03-15T02:15:53.694Z,992.35
2018-03-15T02:16:53.687Z,992.23
2018-03-15T02:17:53.613Z,992.21
2018-03-15T02:18:53.604Z,992.29
2018-03-15T02:19:53.570Z,992.16
2018-03-15T02:20:53.498Z,992.25
2018-03-15T02:21:53.467Z,992.05
2018-03-15T02:22:53.419Z,992.09
2018-03-15T02:23:53.375Z,992.09
2018-03-15T02:24:53.349Z,992.11
2018-03-15T02:25:53.303Z,992.05
2018-03-15T02:26:53.297Z,992.21
2018-03-15T02:27:53.216Z,992.25
2018-03-15T02:28:53.210Z,992.22
2018-03-15T02:29:53.144Z,992.17
2018-03-15T02:30:53.096Z,992.13
2018-03-15T02:31:53.064Z,992.09
2018-03-15T02:32:53.022Z,992.10
2018-03-15T02:33:52.971Z,991.98
2018-03-15T02:34:52.951Z,991.95
2018-03-15T02:35:52.898Z,992.06
2018-03-15T02:36:53.972Z,991.94
2018-03-15T02:37:53.473Z,992.04
2018-03-15T02:38:53.472Z,992.12
2018-03-15T02:39:52.758Z,991.87
2018-03-15T02:40:52.692Z,991.92
2018-03-15T02:41:52.664Z,991.89
2018-03-15T02:42:52.614Z,991.83
2018-03-15T02:43:52.573Z,991.82
2018-03-15T02:44:52.543Z,991.77
2018-03-15T02:45:52.511Z,991.69
2018-03-15T02:46:52.448Z,991.55
2018-03-15T02:47:52.433Z,991.73
2018-03-15T02:48:52.390Z,991.67
2018-03-15T02:49:52.346Z,991.68
2018-03-15T02:50:52.299Z,991.72
2018-03-15T02:51:52.318Z,991.73
2018-03-15T02:52:52.204Z,991.67
2018-03-15T02:53:52.185Z,991.53
2018-03-15T02:54:52.122Z,991.58
2018-03-15T02:55:52.097Z,991.72
2018-03-15T02:56:52.048Z,991.47
2018-03-15T02:57:52.028Z,991.55
2018-03-15T02:58:51.987Z,991.44
2018-03-15T02:59:51.924Z,991.38
2018-03-15T03:00:51.880Z,991.44
2018-03-15T03:01:51.862Z,991.40
2018-03-15T03:02:51.822Z,991.47
2018-03-15T03:03:51.763Z,991.39
2018-03-15T03:04:51.737Z,991.43
2018-03-15T03:05:51.686Z,991.41
2018-03-15T03:06:51.656Z,991.43
2018-03-15T03:07:51.665Z,991.51
2018-03-15T03:08:51.563Z,991.40
2018-03-15T03:09:51.527Z,991.39
2018-03-15T03:10:51.531Z,991.39
2018-03-15T03:11:51.482Z,991.44
2018-03-15T03:12:51.412Z,991.38
2018-03-15T03:13:51.369Z,991.44
2018-03-15T03:14:51.326Z,991.26
2018-03-15T03:15:51.282Z,991.40
2018-03-15T03:16:51.252Z,991.28
2018-03-15T03:17:51.199Z,991.44
2018-03-15T03:18:51.216Z,991.32
2018-03-15T03:19:51.121Z,991.41
2018-03-15T03:20:51.094Z,991.36
2018-03-15T03:21:51.044Z,991.29
2018-03-15T03:22:51.025Z,991.35
2018-03-15T03:23:50.979Z,991.32
2018-03-15T03:24:50.922Z,991.26
2018-03-15T03:25:50.905Z,991.21
2018-03-15T03:26:50.841Z,991.26
2018-03-15T03:27:50.799Z,991.24
2018-03-15T03:28:50.755Z,991.27
2018-03-15T03:29:50.746Z,991.20
2018-03-15T03:30:50.718Z,991.12
2018-03-15T03:31:50.653Z,991.15
2018-03-15T03:32:50.602Z,991.11
2018-03-15T03:33:50.591Z,991.06
2018-03-15T03:34:50.533Z,991.07
2018-03-15T03:35:50.479Z,991.02
2018-03-15T03:36:50.455Z,991.01
2018-03-15T03:37:50.400Z,991.02
2018-03-15T03:38:50.374Z,990.97
2018-03-15T03:39:50.356Z,991.02
2018-03-15T03:40:50.298Z,991.26
2018-03-15T03:41:50.240Z,991.07
2018-03-15T03:42:50.207Z,991.03
2018-03-15T03:43:50.171Z,991.08
2018-03-15T03:44:50.141Z,991.01
2018-03-15T03:45:50.070Z,990.95
2018-03-15T03:46:50.036Z,990.88
2018-03-15T03:47:50.009Z,990.93
2018-03-15T03:48:49.983Z,990.90
2018-03-15T03:49:49.945Z,990.79
2018-03-15T03:50:49.941Z,990.94
2018-03-15T03:51:49.854Z,990.93
2018-03-15T03:52:49.800Z,990.82
2018-03-15T03:53:49.778Z,990.86
2018-03-15T03:54:49.769Z,990.90
2018-03-15T03:55:49.758Z,990.85
2018-03-15T03:56:49.645Z,990.81
2018-03-15T03:57:49.592Z,990.77
2018-03-15T03:58:49.547Z,990.76
2018-03-15T03:59:49.542Z,990.79
2018-03-15T04:00:49.503Z,990.75
2018-03-15T04:01:49.449Z,990.80
2018-03-15T04:02:49.402Z,990.65
2018-03-15T04:03:49.367Z,990.58
2018-03-15T04:04:49.310Z,990.83
2018-03-15T04:05:49.294Z,990.72
2018-03-15T04:06:49.272Z,990.76
2018-03-15T04:07:49.192Z,990.61
2018-03-15T04:08:49.144Z,990.80
2018-03-15T04:09:49.110Z,990.63
2018-03-15T04:10:49.075Z,990.69
2018-03-15T04:11:49.050Z,990.63
2018-03-15T04:12:49.009Z,990.76
2018-03-15T04:13:48.948Z,990.72
2018-03-15T04:14:48.914Z,990.66
2018-03-15T04:15:48.936Z,990.70
2018-03-15T04:16:48.827Z,990.72
2018-03-15T04:17:48.796Z,990.73
2018-03-15T04:18:48.796Z,990.67
2018-03-15T04:19:48.706Z,990.60
2018-03-15T04:20:48.666Z,990.52
2018-03-15T04:21:48.660Z,990.63
2018-03-15T04:22:48.589Z,990.52
2018-03-15T04:23:48.592Z,990.48
2018-03-15T04:24:48.540Z,990.50
2018-03-15T04:25:48.455Z,990.53
2018-03-15T04:26:48.445Z,990.53
2018-03-15T04:27:48.406Z,990.53
2018-03-15T04:28:48.373Z,990.51
2018-03-15T04:29:48.309Z,990.57
2018-03-15T04:30:48.283Z,990.54
2018-03-15T04:31:48.253Z,990.58
2018-03-15T04:32:48.178Z,990.55
2018-03-15T04:33:48.140Z,990.56
2018-03-15T04:34:48.092Z,990.55
2018-03-15T04:35:48.069Z,990.52
2018-03-15T04:36:48.041Z,990.39
2018-03-15T04:37:47.994Z,990.37
2018-03-15T04:38:47.929Z,990.33
2018-03-15T04:39:47.899Z,990.21
2018-03-15T04:40:47.876Z,990.31
2018-03-15T04:41:47.815Z,990.22
2018-03-15T04:42:47.805Z,990.18
2018-03-15T04:43:47.742Z,990.27
2018-03-15T04:44:47.704Z,990.22
2018-03-15T04:45:47.675Z,990.30
2018-03-15T04:46:47.639Z,990.15
2018-03-15T04:47:47.572Z,990.17
2018-03-15T04:48:47.543Z,990.21
2018-03-15T04:49:47.487Z,990.08
2018-03-15T04:50:47.450Z,990.22
2018-03-15T04:51:47.410Z,990.24
2018-03-15T04:52:47.367Z,990.15
2018-03-15T04:53:47.327Z,990.25
2018-03-15T04:54:47.311Z,990.13
2018-03-15T04:55:47.277Z,990.12
2018-03-15T04:56:47.221Z,990.17
2018-03-15T04:57:47.162Z,990.01
2018-03-15T04:58:47.150Z,990.12
2018-03-15T04:59:47.096Z,990.05
2018-03-15T05:00:47.054Z,989.96
2018-03-15T05:01:46.995Z,990.04
2018-03-15T05:02:46.976Z,989.90
2018-03-15T05:03:46.917Z,989.97
2018-03-15T05:04:46.904Z,989.92
2018-03-15T05:05:46.844Z,989.92
2018-03-15T05:06:46.813Z,989.88
2018-03-15T05:07:46.788Z,989.97
2018-03-15T05:08:46.728Z,989.93
2018-03-15T05:09:46.701Z,989.88
2018-03-15T05:10:46.645Z,989.87
2018-03-15T05:11:46.597Z,989.89
2018-03-15T05:12:46.556Z,989.91
2018-03-15T05:13:46.511Z,989.86
2018-03-15T05:14:46.477Z,989.88
2018-03-15T05:15:46.480Z,989.90
2018-03-15T05:16:46.393Z,989.97
2018-03-15T05:17:46.356Z,989.86
2018-03-15T05:18:46.338Z,989.89
2018-03-15T05:19:46.303Z,989.86
2018-03-15T05:20:46.238Z,990.02
2018-03-15T05:21:46.210Z,989.84
2018-03-15T05:22:46.162Z,989.91
2018-03-15T05:23:46.123Z,989.84
2018-03-15T05:24:46.122Z,989.72
2018-03-15T05:25:46.070Z,989.75
2018-03-15T05:26:46.026Z,989.84
2018-03-15T05:27:45.954Z,989.83
2018-03-15T05:28:45.903Z,989.89
2018-03-15T05:29:45.871Z,989.82
2018-03-15T05:30:45.869Z,989.77
2018-03-15T05:31:45.784Z,989.80
2018-03-15T05:32:45.757Z,989.91
2018-03-15T05:33:45.708Z,989.88
2018-03-15T05:34:45.667Z,989.87
2018-03-15T05:35:45.622Z,989.75
2018-03-15T05:36:45.584Z,989.81
2018-03-15T05:37:45.545Z,989.80
2018-03-15T05:38:45.503Z,989.81
2018-03-15T05:39:45.461Z,989.72
2018-03-15T05:40:45.421Z,989.82
2018-03-15T05:41:45.379Z,989.76
2018-03-15T05:42:45.359Z,989.79
2018-03-15T05:43:45.301Z,989.72
2018-03-15T05:44:45.259Z,989.72
2018-03-15T05:45:45.219Z,989.71
2018-03-15T05:46:45.179Z,989.68
2018-03-15T05:47:45.147Z,989.62
2018-03-15T05:48:45.099Z,989.73
2018-03-15T05:49:45.055Z,989.61
2018-03-15T05:50:45.018Z,989.81
2018-03-15T05:51:44.974Z,989.83
2018-03-15T05:52:44.936Z,989.70
2018-03-15T05:53:44.889Z,989.80
2018-03-15T05:54:44.854Z,989.93
2018-03-15T05:55:44.814Z,989.83
2018-03-15T05:56:44.774Z,989.85
2018-03-15T05:57:44.733Z,989.94
2018-03-15T05:58:44.691Z,989.92
2018-03-15T05:59:44.650Z,989.88
2018-03-15T06:00:44.616Z,989.94
2018-03-15T06:01:44.570Z,989.83
2018-03-15T06:02:44.531Z,989.82
2018-03-15T06:03:44.489Z,989.86
2018-03-15T06:04:44.450Z,989.91
2018-03-15T06:05:44.408Z,989.95
2018-03-15T06:06:44.370Z,989.86
2018-03-15T06:07:44.326Z,989.88
2018-03-15T06:08:44.287Z,989.85
2018-03-15T06:09:44.244Z,989.87
2018-03-15T06:10:44.202Z,989.84
2018-03-15T06:11:44.185Z,989.90
2018-03-15T06:12:44.125Z,989.86
2018-03-15T06:13:44.088Z,989.92
2018-03-15T06:14:44.046Z,989.86
2018-03-15T06:15:44.004Z,990.01
2018-03-15T06:16:43.966Z,989.93
2018-03-15T06:17:43.920Z,989.89
2018-03-15T06:18:43.883Z,989.93
2018-03-15T06:19:43.844Z,989.87
2018-03-15T06:20:43.803Z,989.92
2018-03-15T06:21:43.764Z,989.85
2018-03-15T06:22:43.726Z,989.90
2018-03-15T06:23:43.682Z,989.94
2018-03-15T06:24:43.640Z,989.90
2018-03-15T06:25:43.600Z,989.90
2018-03-15T06:26:43.563Z,989.89
2018-03-15T06:27:43.519Z,989.82
2018-03-15T06:28:43.481Z,989.84
2018-03-15T06:29:43.442Z,989.68
2018-03-15T06:30:43.396Z,989.80
2018-03-15T06:31:43.360Z,989.73
2018-03-15T06:32:43.961Z,989.70
2018-03-15T06:33:43.285Z,989.69
2018-03-15T06:34:43.243Z,989.69
2018-03-15T06:35:43.203Z,989.78
2018-03-15T06:36:43.160Z,989.68
2018-03-15T06:37:43.122Z,989.78
2018-03-15T06:38:43.080Z,989.64
2018-03-15T06:39:43.039Z,989.62
2018-03-15T06:40:43.002Z,989.70
2018-03-15T06:41:42.961Z,989.60
2018-03-15T06:42:42.925Z,989.65
2018-03-15T06:43:42.884Z,989.61
2018-03-15T06:44:42.842Z,989.57
2018-03-15T06:45:42.800Z,989.57
2018-03-15T06:46:42.761Z,989.65
2018-03-15T06:47:42.720Z,989.61
2018-03-15T06:48:42.681Z,989.55
2018-03-15T06:49:42.643Z,989.51
2018-03-15T06:50:42.604Z,989.63
2018-03-15T06:51:42.561Z,989.61
2018-03-15T06:52:42.526Z,989.55
2018-03-15T06:53:42.482Z,989.59
2018-03-15T06:54:42.444Z,989.44
2018-03-15T06:55:42.394Z,989.50
2018-03-15T06:56:42.362Z,989.54
2018-03-15T06:57:42.324Z,989.52
2018-03-15T06:58:42.281Z,989.61
2018-03-15T06:59:42.243Z,989.55
2018-03-15T07:00:42.203Z,989.48
2018-03-15T07:01:42.164Z,989.56
2018-03-15T07:02:42.125Z,989.55
2018-03-15T07:03:42.082Z,989.66
2018-03-15T07:04:42.042Z,989.62
2018-03-15T07:05:42.007Z,989.50
2018-03-15T07:06:41.970Z,989.62
2018-03-15T07:07:41.935Z,989.67
2018-03-15T07:08:41.890Z,989.61
2018-03-15T07:09:41.857Z,989.55
2018-03-15T07:10:41.814Z,989.56
2018-03-15T07:11:41.785Z,989.64
2018-03-15T07:12:41.736Z,989.52
2018-03-15T07:13:41.698Z,989.63
2018-03-15T07:14:41.660Z,989.62
2018-03-15T07:15:41.622Z,989.55
2018-03-15T07:16:41.583Z,989.57
2018-03-15T07:17:41.546Z,989.59
2018-03-15T07:18:41.511Z,989.43
2018-03-15T07:19:41.474Z,989.49
2018-03-15T07:20:41.435Z,989.51
2018-03-15T07:21:41.399Z,989.57
2018-03-15T07:22:41.363Z,989.62
2018-03-15T07:23:41.322Z,989.61
2018-03-15T07:24:41.289Z,989.63
2018-03-15T07:25:41.254Z,989.74
2018-03-15T07:26:41.215Z,989.69
2018-03-15T07:27:41.177Z,989.59
2018-03-15T07:28:41.141Z,989.62
2018-03-15T07:29:41.107Z,989.59
2018-03-15T07:30:41.071Z,989.63
2018-03-15T07:31:41.032Z,989.61
2018-03-15T07:32:40.998Z,989.71
2018-03-15T07:33:40.960Z,989.56
2018-03-15T07:34:40.924Z,989.57
2018-03-15T07:35:40.885Z,989.59
2018-03-15T07:36:40.849Z,989.54
2018-03-15T07:37:40.814Z,989.40
2018-03-15T07:38:40.777Z,989.56
2018-03-15T07:39:40.743Z,989.57
2018-03-15T07:40:40.739Z,989.61
2018-03-15T07:41:40.667Z,989.45
2018-03-15T07:42:40.631Z,989.53
2018-03-15T07:43:40.594Z,989.49
2018-03-15T07:44:40.560Z,989.56
2018-03-15T07:45:40.524Z,989.53
2018-03-15T07:46:40.485Z,989.47
2018-03-15T07:47:40.450Z,989.46
2018-03-15T07:48:40.413Z,989.41
2018-03-15T07:49:40.452Z,989.60
2018-03-15T07:50:40.342Z,989.69
2018-03-15T07:51:40.879Z,989.55
2018-03-15T07:52:40.268Z,989.50
2018-03-15T07:53:40.231Z,989.54
2018-03-15T07:54:40.195Z,989.50
2018-03-15T07:55:40.157Z,989.51
2018-03-15T07:56:40.123Z,989.55
2018-03-15T07:57:40.088Z,989.46
2018-03-15T07:58:40.048Z,989.52
2018-03-15T07:59:40.012Z,989.32
2018-03-15T08:00:39.979Z,989.40
2018-03-15T08:01:39.941Z,989.39
2018-03-15T08:02:39.902Z,989.44
2018-03-15T08:03:39.865Z,989.40
2018-03-15T08:04:39.831Z,989.43
2018-03-15T08:05:39.796Z,989.63
2018-03-15T08:06:39.760Z,989.39
2018-03-15T08:07:39.721Z,989.42
2018-03-15T08:08:39.687Z,989.40
2018-03-15T08:09:39.652Z,989.45
2018-03-15T08:10:39.622Z,989.61
2018-03-15T08:11:39.576Z,989.31
2018-03-15T08:12:39.542Z,989.32
2018-03-15T08:13:39.505Z,989.40
2018-03-15T08:14:39.468Z,989.37
2018-03-15T08:15:39.435Z,989.53
2018-03-15T08:16:39.396Z,989.30
2018-03-15T08:17:39.361Z,989.38
2018-03-15T08:18:39.323Z,989.41
2018-03-15T08:19:39.286Z,989.33
2018-03-15T08:20:39.275Z,989.36
2018-03-15T08:21:39.214Z,989.35
2018-03-15T08:22:39.182Z,989.20
2018-03-15T08:23:39.145Z,989.33
2018-03-15T08:24:39.110Z,989.49
2018-03-15T08:25:39.077Z,989.34
2018-03-15T08:26:39.041Z,989.27
2018-03-15T08:27:39.003Z,989.47
2018-03-15T08:28:38.972Z,989.36
2018-03-15T08:29:38.935Z,989.51
2018-03-15T08:30:38.905Z,989.29
2018-03-15T08:31:38.862Z,989.19
2018-03-15T08:32:38.831Z,989.27
2018-03-15T08:33:38.797Z,989.29
2018-03-15T08:34:38.764Z,989.24
2018-03-15T08:35:38.729Z,989.28
2018-03-15T08:36:38.693Z,989.19
2018-03-15T08:37:38.660Z,989.17
2018-03-15T08:38:38.627Z,989.12
2018-03-15T08:39:38.595Z,989.28
2018-03-15T08:40:38.581Z,989.18
2018-03-15T08:41:38.524Z,989.34
2018-03-15T08:42:38.498Z,989.24
2018-03-15T08:43:38.457Z,989.16
2018-03-15T08:44:38.424Z,989.14
2018-03-15T08:45:38.391Z,989.14
2018-03-15T08:46:38.370Z,989.02
2018-03-15T08:47:38.321Z,989.04
2018-03-15T08:48:38.288Z,989.16
2018-03-15T08:49:38.253Z,988.97
2018-03-15T08:50:38.222Z,988.92
2018-03-15T08:51:38.189Z,988.97
2018-03-15T08:52:38.151Z,988.97
2018-03-15T08:53:38.132Z,988.77
2018-03-15T08:54:38.084Z,988.95
2018-03-15T08:55:38.050Z,988.95
2018-03-15T08:56:38.032Z,988.89
2018-03-15T08:57:38.020Z,988.86
2018-03-15T08:58:37.952Z,989.00
2018-03-15T08:59:37.914Z,988.78
2018-03-15T09:00:37.883Z,988.79
2018-03-15T09:01:37.854Z,988.78
2018-03-15T09:02:37.817Z,988.56
2018-03-15T09:03:37.782Z,988.64
2018-03-15T09:04:38.291Z,988.82
2018-03-15T09:05:37.713Z,988.72
2018-03-15T09:06:37.682Z,988.70
2018-03-15T09:07:37.647Z,988.66
2018-03-15T09:08:37.612Z,988.61
2018-03-15T09:09:37.580Z,988.64
2018-03-15T09:10:37.547Z,988.71
2018-03-15T09:11:37.535Z,988.69
2018-03-15T09:12:37.481Z,988.63
2018-03-15T09:13:37.447Z,988.60
2018-03-15T09:14:37.413Z,988.64
2018-03-15T09:15:37.380Z,988.64
2018-03-15T09:16:37.347Z,988.69
2018-03-15T09:17:37.316Z,988.71
2018-03-15T09:18:37.280Z,988.64
2018-03-15T09:19:37.246Z,988.59
2018-03-15T09:20:37.215Z,988.61
2018-03-15T09:21:37.186Z,988.68
2018-03-15T09:22:37.152Z,988.78
2018-03-15T09:23:37.140Z,988.68
2018-03-15T09:24:37.087Z,988.67
2018-03-15T09:25:37.057Z,988.61
2018-03-15T09:26:37.025Z,988.84
2018-03-15T09:27:36.990Z,988.74
2018-03-15T09:28:36.957Z,988.70
2018-03-15T09:29:36.929Z,988.61
2018-03-15T09:30:36.894Z,988.53
2018-03-15T09:31:36.861Z,988.52
2018-03-15T09:32:36.831Z,988.56
2018-03-15T09:33:36.799Z,988.52
2018-03-15T09:34:36.830Z,988.55
2018-03-15T09:35:36.732Z,988.45
2018-03-15T09:36:36.700Z,988.52
2018-03-15T09:37:36.671Z,988.46
2018-03-15T09:38:36.640Z,988.46
2018-03-15T09:39:36.604Z,988.46
2018-03-15T09:40:36.612Z,988.46
2018-03-15T09:41:36.540Z,988.43
2018-03-15T09:42:36.508Z,988.46
2018-03-15T09:43:36.474Z,988.43
2018-03-15T09:44:36.444Z,988.51
2018-03-15T09:45:36.410Z,988.40
2018-03-15T09:46:36.377Z,988.26
2018-03-15T09:47:36.344Z,988.26
2018-03-15T09:48:36.313Z,988.32
2018-03-15T09:49:36.280Z,988.18
2018-03-15T09:50:36.250Z,988.52
2018-03-15T09:51:36.216Z,988.27
2018-03-15T09:52:36.186Z,988.30
2018-03-15T09:53:36.156Z,988.34
2018-03-15T09:54:36.122Z,988.16
2018-03-15T09:55:36.089Z,988.47
2018-03-15T09:56:36.056Z,988.26
2018-03-15T09:57:36.027Z,988.25
2018-03-15T09:58:35.993Z,988.26
2018-03-15T09:59:35.952Z,988.38
2018-03-15T10:00:35.928Z,988.29
2018-03-15T10:01:35.896Z,988.36
2018-03-15T10:02:35.864Z,988.20
2018-03-15T10:03:35.832Z,988.21
2018-03-15T10:04:35.801Z,988.17
2018-03-15T10:05:35.768Z,988.22
2018-03-15T10:06:35.740Z,988.26
2018-03-15T10:07:35.702Z,988.27
2018-03-15T10:08:35.676Z,988.20
2018-03-15T10:09:35.640Z,988.22
2018-03-15T10:10:35.612Z,988.28
2018-03-15T10:11:35.576Z,988.32
2018-03-15T10:12:35.545Z,988.22
2018-03-15T10:13:35.527Z,988.31
2018-03-15T10:14:35.482Z,988.13
2018-03-15T10:15:35.447Z,988.25
2018-03-15T10:16:35.415Z,988.22
2018-03-15T10:17:35.386Z,988.08
2018-03-15T10:18:35.355Z,988.07
2018-03-15T10:19:35.323Z,988.15
2018-03-15T10:20:35.289Z,988.06
2018-03-15T10:21:35.260Z,988.10
2018-03-15T10:22:35.230Z,988.18
2018-03-15T10:23:35.194Z,988.12
2018-03-15T10:24:35.162Z,987.91
2018-03-15T10:25:35.134Z,988.00
2018-03-15T10:26:35.098Z,987.92
2018-03-15T10:27:35.067Z,988.19
2018-03-15T10:28:35.035Z,987.94
2018-03-15T10:29:35.002Z,987.98
2018-03-15T10:30:34.972Z,988.02
2018-03-15T10:31:34.940Z,988.04
2018-03-15T10:32:34.907Z,988.03
2018-03-15T10:33:34.876Z,988.03
2018-03-15T10:34:34.844Z,988.11
2018-03-15T10:35:34.812Z,987.88
2018-03-15T10:36:34.780Z,987.86
2018-03-15T10:37:34.750Z,987.95
2018-03-15T10:38:34.723Z,987.92
2018-03-15T10:39:34.686Z,987.96
2018-03-15T10:40:34.655Z,987.95
2018-03-15T10:41:34.622Z,988.10
2018-03-15T10:42:34.592Z,987.99
2018-03-15T10:43:34.560Z,987.89
2018-03-15T10:44:34.528Z,987.87
2018-03-15T10:45:34.496Z,987.81
2018-03-15T10:46:34.469Z,987.96
2018-03-15T10:47:34.434Z,987.94
2018-03-15T10:48:34.398Z,987.97
2018-03-15T10:49:34.365Z,987.85
2018-03-15T10:50:34.339Z,987.95
2018-03-15T10:51:34.309Z,987.87
2018-03-15T10:52:34.264Z,987.69
2018-03-15T10:53:34.236Z,987.76
2018-03-15T10:54:34.201Z,987.94
2018-03-15T10:55:34.168Z,987.91
2018-03-15T10:56:34.135Z,987.82
2018-03-15T10:57:34.100Z,987.95
2018-03-15T10:58:34.072Z,987.84
2018-03-15T10:59:34.034Z,987.78
2018-03-15T11:00:34.005Z,987.83
2018-03-15T11:01:33.974Z,987.77
2018-03-15T11:02:33.937Z,987.84
2018-03-15T11:03:33.906Z,987.82
2018-03-15T11:04:33.873Z,987.81
2018-03-15T11:05:33.872Z,987.88
2018-03-15T11:06:33.803Z,987.90
2018-03-15T11:07:33.769Z,987.85
2018-03-15T11:08:33.735Z,987.84
2018-03-15T11:09:33.706Z,987.80
2018-03-15T11:10:33.669Z,987.77
2018-03-15T11:11:33.636Z,987.78
2018-03-15T11:12:33.603Z,987.80
2018-03-15T11:13:33.627Z,987.78
2018-03-15T11:14:33.537Z,987.77
2018-03-15T11:15:33.506Z,987.69
2018-03-15T11:16:33.472Z,987.70
2018-03-15T11:17:33.436Z,987.74
2018-03-15T11:18:33.402Z,987.70
2018-03-15T11:19:33.370Z,987.70
2018-03-15T11:20:33.338Z,987.67
2018-03-15T11:21:33.304Z,987.72
2018-03-15T11:22:33.271Z,987.73
2018-03-15T11:23:33.236Z,987.74
2018-03-15T11:24:33.204Z,987.64
2018-03-15T11:25:33.171Z,987.71
2018-03-15T11:26:33.139Z,987.64
2018-03-15T11:27:33.105Z,987.78
2018-03-15T11:28:33.090Z,987.59
2018-03-15T11:29:33.039Z,987.66
2018-03-15T11:30:33.008Z,987.64
2018-03-15T11:31:32.977Z,987.54
2018-03-15T11:32:32.939Z,987.64
2018-03-15T11:33:32.906Z,987.67
2018-03-15T11:34:32.872Z,987.56
2018-03-15T11:35:32.841Z,987.49
2018-03-15T11:36:32.803Z,987.53
2018-03-15T11:37:32.771Z,987.67
2018-03-15T11:38:32.743Z,987.65
2018-03-15T11:39:32.705Z,987.58
2018-03-15T11:40:32.667Z,987.55
2018-03-15T11:41:32.635Z,987.61
2018-03-15T11:42:32.600Z,987.51
2018-03-15T11:43:32.574Z,987.51
2018-03-15T11:44:32.541Z,987.57
2018-03-15T11:45:32.498Z,987.56
2018-03-15T11:46:32.466Z,987.45
2018-03-15T11:47:32.429Z,987.60
2018-03-15T11:48:32.674Z,987.59
2018-03-15T11:49:32.360Z,987.46
2018-03-15T11:50:32.329Z,987.58
2018-03-15T11:51:32.293Z,987.43
2018-03-15T11:52:32.257Z,987.48
2018-03-15T11:53:32.226Z,987.52
2018-03-15T11:54:32.190Z,987.57
2018-03-15T11:55:32.155Z,987.52
2018-03-15T11:56:32.119Z,987.33
2018-03-15T11:57:32.087Z,987.41
2018-03-15T11:58:32.053Z,987.40
2018-03-15T11:59:32.016Z,987.37
2018-03-15T12:00:31.980Z,987.35
2018-03-15T12:01:31.951Z,987.46
2018-03-15T12:02:31.909Z,987.32
2018-03-15T12:03:31.876Z,987.30
2018-03-15T12:04:31.841Z,987.31
2018-03-15T12:05:31.809Z,987.34
2018-03-15T12:06:31.770Z,987.17
2018-03-15T12:07:31.739Z,987.35
2018-03-15T12:08:31.701Z,987.15
2018-03-15T12:09:31.673Z,987.24
2018-03-15T12:10:31.631Z,987.15
2018-03-15T12:11:31.595Z,987.31
2018-03-15T12:12:31.561Z,987.26
2018-03-15T12:13:31.526Z,987.17
2018-03-15T12:14:31.504Z,987.10
2018-03-15T12:15:31.456Z,986.99
2018-03-15T12:16:31.419Z,987.05
2018-03-15T12:17:31.386Z,987.11
2018-03-15T12:18:31.349Z,987.08
2018-03-15T12:19:31.313Z,987.05
2018-03-15T12:20:31.279Z,987.10
2018-03-15T12:21:31.245Z,987.01
2018-03-15T12:22:31.207Z,986.95
2018-03-15T12:23:31.171Z,987.03
2018-03-15T12:24:31.135Z,986.97
2018-03-15T12:25:31.101Z,986.99
2018-03-15T12:26:31.065Z,986.96
2018-03-15T12:27:31.030Z,986.88
2018-03-15T12:28:30.997Z,986.93